Time;durP1;ratioP1;P1;durP2;ratioP2;P2;SDS_P1;SDS_P2;PMS_P1;PMS_P2;Temp;Humidity;BMP_temperature;BMP_pressure;BME280_temperature;BME280_humidity;BME280_pressure;Samples;Min_cycle;Max_cycle;Signal;HPM_P1;HPM_P2
2022/10/21 00:00:38;;;;;;;20.50;15.60;;;;;;;13.34;100.00;100710.59;5254131;28;20070;-74
2022/10/21 00:03:09;;;;;;;22.50;15.10;;;;;;;13.23;100.00;100696.47;5254809;28;20057;-74
2022/10/21 00:05:41;;;;;;;24.80;15.67;;;;;;;13.25;100.00;100689.31;5253663;28;20063;-74
2022/10/21 00:08:13;;;;;;;17.07;13.90;;;;;;;13.22;100.00;100684.28;5254638;28;20049;-75
2022/10/21 00:10:44;;;;;;;17.63;13.97;;;;;;;13.18;100.00;100691.56;5253597;28;20909;-74
2022/10/21 00:13:15;;;;;;;18.27;12.97;;;;;;;13.12;100.00;100685.91;5252622;28;20055;-76
2022/10/21 00:16:07;;;;;;;18.17;13.10;;;;;;;13.27;100.00;100697.94;5253518;28;20036;-75
2022/10/21 00:18:39;;;;;;;16.27;12.73;;;;;;;13.19;100.00;100702.91;5255152;28;20060;-75
2022/10/21 00:21:17;;;;;;;16.97;12.30;;;;;;;13.09;100.00;100694.03;5254909;28;20561;-75
2022/10/21 00:23:49;;;;;;;18.13;12.67;;;;;;;13.13;100.00;100691.06;5254528;28;20029;-75
2022/10/21 00:26:20;;;;;;;16.60;13.87;;;;;;;13.07;100.00;100687.06;5254986;28;20391;-76
2022/10/21 00:28:55;;;;;;;24.20;15.63;;;;;;;13.09;100.00;100673.81;5253408;28;20459;-75
2022/10/21 00:31:27;;;;;;;28.20;16.47;;;;;;;13.05;100.00;100669.75;5255185;28;20036;-75
2022/10/21 00:33:58;;;;;;;19.97;15.87;;;;;;;13.03;100.00;100669.88;5254576;28;20033;-77
2022/10/21 00:36:30;;;;;;;21.33;16.10;;;;;;;13.02;100.00;100662.91;5253320;28;20071;-75
2022/10/21 00:39:02;;;;;;;26.87;15.87;;;;;;;13.19;100.00;100684.50;5254710;28;20561;-74
2022/10/21 00:41:33;;;;;;;22.57;14.73;;;;;;;13.22;100.00;100684.28;5258640;28;20025;-72
2022/10/21 00:44:11;;;;;;;20.70;15.27;;;;;;;13.19;100.00;100672.19;5257748;28;20025;-74
2022/10/21 00:47:00;;;;;;;22.13;16.33;;;;;;;13.28;100.00;100678.56;5256326;28;20033;-76
2022/10/21 00:49:54;;;;;;;24.50;16.03;;;;;;;13.25;100.00;100689.31;5258433;28;20364;-75
2022/10/21 00:52:28;;;;;;;25.47;14.93;;;;;;;13.19;100.00;100674.00;5258522;28;20654;-75
2022/10/21 00:55:03;;;;;;;17.05;15.35;;;;;;;13.21;100.00;100679.97;5256935;28;20030;-76
2022/10/21 00:57:34;;;;;;;20.63;16.47;;;;;;;13.23;100.00;100674.59;5258408;28;20021;-75
2022/10/21 01:00:06;;;;;;;21.80;15.20;;;;;;;13.19;100.00;100663.47;5257531;28;20036;-74
2022/10/21 01:02:38;;;;;;;21.33;16.07;;;;;;;13.18;100.00;100652.09;5257869;28;20111;-76
2022/10/21 01:05:10;;;;;;;20.33;15.30;;;;;;;13.15;100.00;100656.75;5258126;28;20115;-75
2022/10/21 01:07:41;;;;;;;22.87;15.77;;;;;;;13.16;100.00;100656.63;5256850;28;20380;-74
2022/10/21 01:10:13;;;;;;;22.27;17.10;;;;;;;13.12;100.00;100642.06;5257446;28;20031;-76
2022/10/21 01:13:08;;;;;;;23.77;16.97;;;;;;;13.15;100.00;100644.47;5256981;28;20025;-74
2022/10/21 01:15:42;;;;;;;;;;;;;;;13.28;100.00;100652.25;5258951;28;20056;-74
2022/10/21 01:18:26;;;;;;;19.27;14.55;;;;;;;13.07;100.00;100626.59;5256599;28;20272;-77
2022/10/21 01:21:14;;;;;;;16.13;14.07;;;;;;;13.17;100.00;100641.72;5256511;28;20039;-74
2022/10/21 01:24:18;;;;;;;25.87;14.97;;;;;;;13.19;100.00;100637.19;5257714;28;20021;-76
2022/10/21 01:27:09;;;;;;;18.05;12.88;;;;;;;13.15;100.00;100619.94;5257257;28;20052;-75
2022/10/21 01:30:05;;;;;;;19.07;14.17;;;;;;;13.13;100.00;100621.84;5256965;28;20048;-74
2022/10/21 01:32:39;;;;;;;21.77;14.03;;;;;;;13.14;100.00;100620.91;5257674;28;20070;-74
2022/10/21 01:35:10;;;;;;;20.98;14.00;;;;;;;13.16;100.00;100629.53;5258508;28;20053;-73
2022/10/21 01:37:59;;;;;;;15.63;13.20;;;;;;;13.11;100.00;100614.06;5259872;28;20061;-74
2022/10/21 01:40:48;;;;;;;15.47;13.03;;;;;;;13.09;100.00;100607.25;5258759;28;20039;-74
2022/10/21 01:43:29;;;;;;;17.23;13.40;;;;;;;13.02;100.00;100610.34;5259065;28;20269;-74
2022/10/21 01:46:14;;;;;;;17.53;12.30;;;;;;;12.94;100.00;100607.44;5260118;28;20024;-74
2022/10/21 01:49:01;;;;;;;27.60;13.70;;;;;;;12.90;100.00;100600.72;5258716;28;20029;-75
2022/10/21 01:51:35;;;;;;;14.93;12.23;;;;;;;12.85;100.00;100602.84;5256413;28;20044;-74
2022/10/21 01:54:17;;;;;;;20.85;13.00;;;;;;;12.83;100.00;100595.94;5258139;28;20033;-74
2022/10/21 01:56:49;;;;;;;19.90;13.67;;;;;;;12.82;100.00;100596.03;5256395;28;20108;-75
2022/10/21 01:59:25;;;;;;;20.37;13.67;;;;;;;12.86;100.00;100588.78;5256705;28;20028;-76
2022/10/21 02:02:01;;;;;;;16.63;12.03;;;;;;;12.71;100.00;100570.56;5257399;28;20428;-76
2022/10/21 02:04:34;;;;;;;16.63;12.20;;;;;;;12.67;100.00;100580.44;5257472;28;20442;-75
2022/10/21 02:07:09;;;;;;;13.23;11.50;;;;;;;12.59;100.00;100588.06;5256946;28;20120;-75
2022/10/21 02:09:40;;;;;;;16.30;11.87;;;;;;;12.59;100.00;100590.69;5257317;28;20048;-74
2022/10/21 02:12:13;;;;;;;15.00;11.33;;;;;;;12.57;100.00;100582.91;5257061;28;20021;-77
2022/10/21 02:14:48;;;;;;;15.40;11.20;;;;;;;12.40;100.00;100578.03;5254425;28;20056;-75
2022/10/21 02:17:21;;;;;;;15.67;11.80;;;;;;;12.51;100.00;100567.63;5257292;28;20044;-75
2022/10/21 02:19:56;;;;;;;19.57;11.70;;;;;;;12.32;100.00;100541.84;5258736;28;20029;-75
2022/10/21 02:22:28;;;;;;;15.97;11.50;;;;;;;12.49;100.00;100564.25;5256800;28;20400;-75
2022/10/21 02:25:23;;;;;;;11.93;10.27;;;;;;;12.43;100.00;100543.66;5254792;28;20052;-73
2022/10/21 02:27:54;;;;;;;13.25;10.60;;;;;;;12.36;100.00;100556.41;5255861;28;20533;-74
2022/10/21 02:30:34;;;;;;;18.50;11.80;;;;;;;12.49;100.00;100561.63;5256982;28;20025;-75
2022/10/21 02:33:13;;;;;;;17.60;11.53;;;;;;;12.48;100.00;100575.69;5256103;28;20036;-75
2022/10/21 02:36:02;;;;;;;17.63;11.57;;;;;;;12.43;100.00;100567.31;5256315;28;20037;-75
2022/10/21 02:38:42;;;;;;;14.47;10.63;;;;;;;12.27;100.00;100578.91;5255955;28;20431;-75
2022/10/21 02:41:19;;;;;;;15.87;11.50;;;;;;;12.43;100.00;100568.16;5256554;28;20056;-75
2022/10/21 02:43:58;;;;;;;12.93;11.13;;;;;;;12.40;100.00;100572.78;5255096;28;20029;-74
2022/10/21 02:46:38;;;;;;;17.37;12.10;;;;;;;12.35;100.00;100573.13;5256207;28;20029;-75
2022/10/21 02:49:10;;;;;;;17.17;10.70;;;;;;;12.26;100.00;100556.25;5254206;28;20503;-75
2022/10/21 02:51:42;;;;;;;13.93;12.33;;;;;;;12.40;100.00;100557.03;5256102;28;20024;-76
2022/10/21 02:54:13;;;;;;;16.23;10.73;;;;;;;12.34;100.00;100551.28;5255523;28;20103;-75
2022/10/21 02:56:44;;;;;;;16.27;11.37;;;;;;;12.29;100.00;100540.25;5255828;28;20025;-74
2022/10/21 02:59:15;;;;;;;16.37;11.60;;;;;;;12.33;100.00;100552.22;5254715;28;20036;-74
2022/10/21 03:01:47;;;;;;;18.33;12.57;;;;;;;12.43;100.00;100547.16;5255427;28;20021;-74
2022/10/21 03:04:18;;;;;;;15.70;11.57;;;;;;;12.43;100.00;100544.50;5255705;28;20029;-74
2022/10/21 03:06:49;;;;;;;17.87;11.83;;;;;;;12.42;100.00;100549.88;5254453;28;20040;-75
2022/10/21 03:09:21;;;;;;;16.37;11.63;;;;;;;12.43;100.00;100557.66;5255613;28;20114;-74
2022/10/21 03:11:52;;;;;;;17.50;12.43;;;;;;;12.24;100.00;100531.03;5255966;28;20057;-74
2022/10/21 03:14:23;;;;;;;15.23;11.17;;;;;;;12.36;100.00;100552.97;5253306;28;20013;-75
2022/10/21 03:16:54;;;;;;;14.77;11.03;;;;;;;12.29;100.00;100548.13;5255151;28;20025;-74
2022/10/21 03:19:26;;;;;;;14.97;10.33;;;;;;;12.08;100.00;100543.44;5254415;28;20040;-75
2022/10/21 03:21:57;;;;;;;18.27;12.50;;;;;;;12.25;100.00;100537.97;5255064;28;20030;-73
2022/10/21 03:24:28;;;;;;;18.57;12.17;;;;;;;12.24;100.00;100545.00;5255725;28;20028;-75
2022/10/21 03:26:59;;;;;;;19.93;12.67;;;;;;;12.23;100.00;100540.72;5255114;28;20116;-74
2022/10/21 03:29:31;;;;;;;16.30;11.50;;;;;;;12.32;100.00;100561.03;5254389;28;20029;-74
2022/10/21 03:32:02;;;;;;;17.90;11.37;;;;;;;12.17;100.00;100552.50;5255437;28;20036;-74
2022/10/21 03:34:33;;;;;;;16.20;10.97;;;;;;;12.21;100.00;100547.84;5255039;28;20021;-74
2022/10/21 03:37:05;;;;;;;15.70;11.07;;;;;;;12.29;100.00;100552.53;5255509;28;20059;-74
2022/10/21 03:39:36;;;;;;;17.90;11.17;;;;;;;12.29;100.00;100550.75;5254864;28;20033;-74
2022/10/21 03:42:07;;;;;;;16.70;10.67;;;;;;;12.21;100.00;100537.34;5255381;28;20068;-75
2022/10/21 03:44:39;;;;;;;16.57;11.27;;;;;;;12.25;100.00;100546.69;5254190;28;20029;-74
2022/10/21 03:47:11;;;;;;;16.30;10.30;;;;;;;12.15;100.00;100530.75;5253191;28;20029;-76
2022/10/21 03:49:42;;;;;;;11.67;9.67;;;;;;;12.17;100.00;100541.13;5254924;28;20021;-77
2022/10/21 03:52:13;;;;;;;13.83;10.80;;;;;;;12.08;100.00;100537.34;5254872;28;20029;-75
2022/10/21 03:54:44;;;;;;;15.33;10.40;;;;;;;12.10;100.00;100531.09;5255023;28;20632;-75
2022/10/21 03:57:16;;;;;;;14.20;10.00;;;;;;;12.19;100.00;100539.25;5254648;28;20036;-75
2022/10/21 03:59:47;;;;;;;11.07;9.70;;;;;;;12.16;100.00;100535.06;5254559;28;20032;-75
2022/10/21 04:02:18;;;;;;;13.13;8.70;;;;;;;12.08;100.00;100525.06;5253762;28;20059;-75
2022/10/21 04:04:50;;;;;;;14.20;8.90;;;;;;;12.10;100.00;100531.09;5254516;28;20029;-76
2022/10/21 04:07:21;;;;;;;11.93;9.03;;;;;;;12.02;100.00;100533.41;5254845;28;20411;-75
2022/10/21 04:09:52;;;;;;;10.53;8.77;;;;;;;11.95;100.00;100542.66;5254619;28;20701;-75
2022/10/21 04:12:23;;;;;;;11.77;8.47;;;;;;;11.88;100.00;100539.63;5253679;28;20048;-74
2022/10/21 04:14:55;;;;;;;17.30;8.47;;;;;;;12.04;100.00;100538.53;5254248;28;20033;-75
2022/10/21 04:17:26;;;;;;;9.33;7.67;;;;;;;11.84;100.00;100544.25;5258801;28;20037;-73
2022/10/21 04:19:57;;;;;;;11.50;7.57;;;;;;;11.88;100.00;100546.66;5257556;28;20043;-74
2022/10/21 04:22:28;;;;;;;9.83;7.70;;;;;;;11.98;100.00;100538.03;5259230;28;20090;-75
2022/10/21 04:25:00;;;;;;;12.13;7.33;;;;;;;11.83;100.00;100533.84;5257144;28;20365;-74
2022/10/21 04:27:31;;;;;;;11.00;7.13;;;;;;;11.79;100.00;100535.84;5256713;28;20595;-74
2022/10/21 04:30:03;;;;;;;9.87;6.87;;;;;;;11.76;100.00;100540.47;5258575;28;20029;-73
2022/10/21 04:32:34;;;;;;;11.07;6.63;;;;;;;11.83;100.00;100544.34;5258687;28;20749;-74
2022/10/21 04:35:06;;;;;;;14.30;7.20;;;;;;;11.66;100.00;100548.16;5258751;28;20048;-73
2022/10/21 04:37:39;;;;;;;8.10;5.67;;;;;;;11.79;100.00;100538.47;5258566;28;20025;-74
2022/10/21 04:40:10;;;;;;;17.37;7.00;;;;;;;11.71;100.00;100535.56;5258497;28;20048;-74
2022/10/21 04:42:45;;;;;;;10.27;6.20;;;;;;;11.68;100.00;100544.47;5257835;28;20083;-75
2022/10/21 04:45:17;;;;;;;8.50;6.63;;;;;;;11.83;100.00;100552.22;5258300;28;20476;-74
2022/10/21 04:47:48;;;;;;;9.53;6.00;;;;;;;11.81;100.00;100554.13;5256964;28;20040;-75
2022/10/21 04:50:19;;;;;;;15.10;5.80;;;;;;;11.63;100.00;100533.47;5258583;28;20029;-74
2022/10/21 04:52:51;;;;;;;12.67;5.97;;;;;;;11.67;100.00;100534.09;5258294;28;20033;-76
2022/10/21 04:55:22;;;;;;;11.53;6.13;;;;;;;11.81;100.00;100541.84;5258505;28;20390;-75
2022/10/21 04:57:53;;;;;;;11.40;6.17;;;;;;;11.74;100.00;100543.22;5257688;28;20376;-74
2022/10/21 05:00:24;;;;;;;12.10;5.97;;;;;;;11.64;100.00;100519.41;5258721;28;20025;-74
2022/10/21 05:02:56;;;;;;;10.97;5.17;;;;;;;11.60;100.00;100538.94;5256863;28;20020;-74
2022/10/21 05:05:27;;;;;;;10.07;4.63;;;;;;;11.87;100.00;100543.19;5257254;28;20107;-75
2022/10/21 05:07:58;;;;;;;6.40;4.30;;;;;;;11.79;100.00;100538.47;5259094;28;20056;-73
2022/10/21 05:10:29;;;;;;;5.67;4.80;;;;;;;11.77;100.00;100534.28;5259250;28;20029;-74
2022/10/21 05:13:01;;;;;;;9.33;4.93;;;;;;;11.82;100.00;100533.00;5257076;28;20585;-76
2022/10/21 05:15:33;;;;;;;11.03;5.37;;;;;;;11.80;100.00;100531.47;5259132;28;20487;-75
2022/10/21 05:18:04;;;;;;;11.10;4.97;;;;;;;11.89;100.00;100532.56;5261421;28;20025;-75
2022/10/21 05:20:35;;;;;;;8.90;5.60;;;;;;;11.91;100.00;100531.53;5260643;28;20087;-74
2022/10/21 05:23:07;;;;;;;7.33;4.40;;;;;;;11.76;100.00;100520.34;5257798;28;20029;-74
2022/10/21 05:25:38;;;;;;;12.13;4.07;;;;;;;11.86;100.00;100526.63;5259173;28;20032;-74
2022/10/21 05:28:09;;;;;;;12.80;6.30;;;;;;;11.89;100.00;100524.69;5257678;28;20672;-75
2022/10/21 05:30:40;;;;;;;7.80;5.07;;;;;;;11.79;100.00;100520.13;5258893;28;20379;-75
2022/10/21 05:33:12;;;;;;;7.97;4.47;;;;;;;11.91;100.00;100521.03;5258052;28;20064;-74
2022/10/21 05:35:43;;;;;;;14.50;5.00;;;;;;;11.79;100.00;100501.75;5256253;28;20052;-73
2022/10/21 05:38:15;;;;;;;11.93;5.23;;;;;;;11.80;100.00;100498.16;5258432;28;20036;-75
2022/10/21 05:40:46;;;;;;;8.93;4.23;;;;;;;11.81;100.00;100489.38;5257532;28;20032;-72
2022/10/21 05:43:18;;;;;;;6.40;4.40;;;;;;;11.94;100.00;100501.59;5259160;28;20024;-75
2022/10/21 05:45:49;;;;;;;8.67;5.10;;;;;;;11.73;100.00;100503.00;5257492;28;20456;-73
2022/10/21 05:48:20;;;;;;;11.27;4.27;;;;;;;11.79;100.00;100501.75;5256455;28;20029;-73
2022/10/21 05:50:54;;;;;;;8.00;4.37;;;;;;;11.67;100.00;100495.59;5257436;28;20090;-76
2022/10/21 05:53:25;;;;;;;8.77;4.63;;;;;;;11.62;100.00;100484.56;5257578;28;20070;-77
2022/10/21 05:56:05;;;;;;;9.63;4.87;;;;;;;11.79;100.00;100485.16;5257191;28;20056;-74
2022/10/21 05:58:36;;;;;;;9.67;5.03;;;;;;;11.58;100.00;100486.56;5256560;28;20484;-74
2022/10/21 06:01:08;;;;;;;9.50;4.73;;;;;;;11.57;100.00;100477.00;5255945;28;20025;-73
2022/10/21 06:03:39;;;;;;;8.77;5.07;;;;;;;11.64;100.00;100487.09;5257303;28;20100;-77
2022/10/21 06:06:10;;;;;;;10.20;4.70;;;;;;;11.61;100.00;100491.59;5256670;28;20028;-74
2022/10/21 06:08:41;;;;;;;19.20;4.50;;;;;;;11.63;100.00;100501.97;5260028;28;20052;-73
2022/10/21 06:11:18;;;;;;;11.30;4.43;;;;;;;11.64;100.00;100485.31;5254498;28;20035;-74
2022/10/21 06:13:49;;;;;;;8.10;4.40;;;;;;;11.71;100.00;100504.09;5254989;28;20025;-72
2022/10/21 06:16:20;;;;;;;11.37;5.13;;;;;;;11.48;100.00;100482.91;5255788;28;20063;-73
2022/10/21 06:18:52;;;;;;;8.40;4.80;;;;;;;11.56;100.00;100493.72;5257180;28;20029;-71
2022/10/21 06:21:23;;;;;;;8.13;4.57;;;;;;;11.64;100.00;100489.72;5257230;28;20025;-71
2022/10/21 06:23:54;;;;;;;8.60;5.30;;;;;;;11.60;100.00;100489.94;5256236;28;20037;-74
2022/10/21 06:26:26;;;;;;;9.37;4.00;;;;;;;11.56;100.00;100483.22;5256420;28;20021;-73
2022/10/21 06:28:57;;;;;;;14.73;5.23;;;;;;;11.63;100.00;100486.25;5258168;28;20056;-74
2022/10/21 06:31:28;;;;;;;10.57;4.57;;;;;;;11.70;100.00;100492.75;5257356;28;20032;-77
2022/10/21 06:34:00;;;;;;;11.50;4.53;;;;;;;11.73;100.00;100496.91;5256881;28;20025;-74
2022/10/21 06:36:31;;;;;;;9.10;4.63;;;;;;;11.69;100.00;100485.84;5255217;28;20021;-73
2022/10/21 06:39:07;;;;;;;12.03;4.87;;;;;;;11.69;100.00;100492.84;5255391;28;20051;-72
2022/10/21 06:41:38;;;;;;;8.03;3.37;;;;;;;11.79;100.00;100506.16;5256359;28;20025;-73
2022/10/21 06:44:09;;;;;;;6.20;4.30;;;;;;;11.84;100.00;100510.13;5254866;28;20546;-73
2022/10/21 06:46:40;;;;;;;6.90;3.70;;;;;;;11.82;100.00;100512.03;5256304;28;20044;-72
2022/10/21 06:49:12;;;;;;;7.93;4.10;;;;;;;11.96;100.00;100523.31;5256013;28;20040;-76
2022/10/21 06:51:43;;;;;;;7.77;3.90;;;;;;;11.90;100.00;100518.53;5256007;28;20075;-73
2022/10/21 06:54:14;;;;;;;5.50;3.33;;;;;;;12.01;100.00;100526.44;5255062;28;20033;-75
2022/10/21 06:56:45;;;;;;;5.63;3.37;;;;;;;11.98;100.00;100524.06;5253386;28;20028;-73
2022/10/21 06:59:17;;;;;;;10.47;3.53;;;;;;;12.07;100.00;100535.69;5256062;28;20017;-71
2022/10/21 07:01:48;;;;;;;10.30;4.30;;;;;;;12.08;100.00;100540.81;5255116;28;20044;-75
2022/10/21 07:04:19;;;;;;;8.40;3.27;;;;;;;12.13;100.00;100550.19;5254407;28;20449;-72
2022/10/21 07:06:51;;;;;;;9.00;3.80;;;;;;;12.16;100.00;100553.44;5255324;28;20055;-72
2022/10/21 07:09:22;;;;;;;6.73;3.27;;;;;;;12.17;100.00;100562.13;5251381;28;20515;-72
2022/10/21 07:11:53;;;;;;;11.47;3.90;;;;;;;12.22;100.00;100565.28;5252448;28;20033;-72
2022/10/21 07:14:25;;;;;;;8.63;3.27;;;;;;;12.25;100.00;100553.72;5255378;28;20070;-74
2022/10/21 07:16:56;;;;;;;9.63;3.97;;;;;;;12.31;100.00;100564.63;5255557;28;20464;-72
2022/10/21 07:19:27;;;;;;;8.33;3.67;;;;;;;12.26;100.00;100556.25;5255659;28;20040;-73
2022/10/21 07:22:00;;;;;;;8.30;3.00;;;;;;;12.33;100.00;100562.75;5254573;28;20033;-71
2022/10/21 07:24:31;;;;;;;8.27;3.97;;;;;;;12.38;100.00;100572.06;5254023;28;20052;-74
2022/10/21 07:27:02;;;;;;;8.43;3.10;;;;;;;12.41;100.00;100570.03;5252521;28;20029;-71
2022/10/21 07:29:34;;;;;;;7.67;3.70;;;;;;;12.39;100.00;100550.94;5254118;28;20055;-71
2022/10/21 07:32:05;;;;;;;6.63;3.30;;;;;;;12.46;100.00;100567.09;5254799;28;20025;-74
2022/10/21 07:34:36;;;;;;;9.70;3.50;;;;;;;12.37;100.00;100549.38;5255184;28;20103;-72
2022/10/21 07:37:08;;;;;;;7.90;3.77;;;;;;;12.53;100.00;100563.06;5255264;28;20461;-72
2022/10/21 07:39:39;;;;;;;8.73;3.43;;;;;;;12.56;100.00;100570.75;5253385;28;20060;-72
2022/10/21 07:42:10;;;;;;;8.67;3.57;;;;;;;12.63;100.00;100579.00;5253997;28;20501;-72
2022/10/21 07:44:41;;;;;;;10.87;4.50;;;;;;;12.63;100.00;100583.41;5255879;28;20040;-71
2022/10/21 07:47:13;;;;;;;8.83;4.10;;;;;;;12.63;100.00;100583.41;5253972;28;20110;-74
2022/10/21 07:49:44;;;;;;;8.03;3.40;;;;;;;12.58;100.00;100576.69;5253848;28;20017;-74
2022/10/21 07:52:15;;;;;;;8.50;3.90;;;;;;;12.73;100.00;100599.34;5253729;28;20087;-72
2022/10/21 07:54:46;;;;;;;8.17;4.97;;;;;;;12.73;100.00;100584.41;5253524;28;20025;-72
2022/10/21 07:57:18;;;;;;;12.10;4.40;;;;;;;12.79;100.00;100594.47;5254685;28;20025;-73
2022/10/21 07:59:49;;;;;;;9.93;4.43;;;;;;;12.81;100.00;100597.00;5254413;28;20046;-72
2022/10/21 08:02:22;;;;;;;8.50;4.83;;;;;;;12.79;100.00;100576.06;5254826;28;20029;-71
2022/10/21 08:04:54;;;;;;;8.10;4.10;;;;;;;12.85;100.00;100587.09;5254638;28;20025;-72
2022/10/21 08:07:25;;;;;;;10.80;5.13;;;;;;;12.87;100.00;100580.78;5255070;28;20033;-72
2022/10/21 08:09:57;;;;;;;13.93;5.00;;;;;;;12.96;100.00;100589.78;5254626;28;20032;-73
2022/10/21 08:12:29;;;;;;;11.83;5.70;;;;;;;13.01;100.00;100585.00;5253840;28;20494;-72
2022/10/21 08:15:00;;;;;;;8.90;4.60;;;;;;;12.91;100.00;100570.88;5254814;28;20068;-74
2022/10/21 08:17:31;;;;;;;13.30;4.97;;;;;;;12.89;100.00;100572.78;5254413;28;20044;-73
2022/10/21 08:20:03;;;;;;;12.53;4.87;;;;;;;12.96;100.00;100581.88;5254212;28;20029;-73
2022/10/21 08:22:34;;;;;;;9.93;4.67;;;;;;;12.91;100.00;100570.88;5253317;28;20041;-75
2022/10/21 08:25:06;;;;;;;12.17;5.83;;;;;;;12.84;100.00;100567.88;5254268;28;20136;-73
2022/10/21 08:27:37;;;;;;;7.40;5.03;;;;;;;12.87;100.00;100600.97;5253824;28;20040;-72
2022/10/21 08:30:09;;;;;;;8.80;4.53;;;;;;;12.90;100.00;100606.81;5253768;28;20036;-75
2022/10/21 08:32:40;;;;;;;9.07;5.00;;;;;;;12.92;100.00;100596.19;5255174;28;20040;-73
2022/10/21 08:35:11;;;;;;;11.50;5.67;;;;;;;12.99;100.00;100609.72;5254734;28;20075;-71
2022/10/21 08:37:47;;;;;;;8.20;5.57;;;;;;;12.99;100.00;100601.84;5253866;28;20074;-76
2022/10/21 08:40:19;;;;;;;14.37;5.67;;;;;;;12.95;100.00;100594.19;5255059;28;20107;-72
2022/10/21 08:42:51;;;;;;;11.27;5.77;;;;;;;13.00;100.00;100607.00;5253974;28;20124;-73
2022/10/21 08:45:27;;;;;;;15.87;5.57;;;;;;;12.98;100.00;100608.91;5257145;28;20045;-71
2022/10/21 08:48:03;;;;;;;11.03;5.70;;;;;;;13.01;100.00;100613.94;5256888;28;20037;-72
2022/10/21 08:50:39;;;;;;;10.70;5.87;;;;;;;12.96;100.00;100600.28;5260847;28;20029;-72
2022/10/21 08:53:22;;;;;;;10.30;5.70;;;;;;;13.01;100.00;100602.56;5256975;28;20090;-72
2022/10/21 08:56:02;;;;;;;11.00;5.93;;;;;;;12.97;100.00;100612.47;5256073;28;20108;-72
2022/10/21 08:58:33;;;;;;;8.17;5.80;;;;;;;13.00;100.00;100628.03;5255228;28;20033;-72
2022/10/21 09:01:20;;;;;;;15.63;6.43;;;;;;;13.04;100.00;100645.25;5256295;28;20071;-73
2022/10/21 09:04:17;;;;;;;11.43;5.50;;;;;;;13.13;100.00;100622.69;5257195;28;20029;-73
2022/10/21 09:07:06;;;;;;;9.27;5.37;;;;;;;13.09;100.00;100636.19;5258563;28;20582;-73
2022/10/21 09:09:50;;;;;;;10.17;5.37;;;;;;;13.11;100.00;100636.91;5258627;28;20045;-71
2022/10/21 09:12:24;;;;;;;8.27;4.22;;;;;;;13.18;100.00;100622.34;5255748;28;20032;-73
2022/10/21 09:15:16;;;;;;;8.38;5.60;;;;;;;13.16;100.00;100617.19;5258335;28;20032;-71
2022/10/21 09:17:57;;;;;;;7.33;3.97;;;;;;;13.23;100.00;100617.56;5257145;28;20434;-72
2022/10/21 09:20:57;;;;;;;9.47;4.37;;;;;;;13.28;100.00;100606.72;5257835;28;20398;-74
2022/10/21 09:23:50;;;;;;;6.40;3.87;;;;;;;13.29;100.00;100609.25;5255666;28;20037;-72
2022/10/21 09:26:25;;;;;;;8.37;3.33;;;;;;;13.35;100.00;100615.84;5255870;28;20079;-72
2022/10/21 09:28:59;;;;;;;5.82;2.58;;;;;;;13.41;100.00;100619.78;5257565;28;20429;-74
2022/10/21 09:31:31;;;;;;;10.27;2.90;;;;;;;13.51;100.00;100618.13;5256293;28;20032;-73
2022/10/21 09:34:06;;;;;;;7.13;2.43;;;;;;;13.53;100.00;100615.41;5257845;28;20459;-73
2022/10/21 09:36:46;;;;;;;6.10;2.20;;;;;;;13.58;100.00;100610.63;5256398;28;20476;-75
2022/10/21 09:39:35;;;;;;;4.03;2.17;;;;;;;13.67;100.00;100609.09;5257964;28;20013;-73
2022/10/21 09:42:10;;;;;;;4.80;2.60;;;;;;;13.76;100.00;100607.53;5256366;28;20021;-73
2022/10/21 09:44:43;;;;;;;8.17;3.23;;;;;;;13.80;100.00;100619.50;5256771;28;20021;-72
2022/10/21 09:47:23;;;;;;;7.47;2.70;;;;;;;13.86;100.00;100618.22;5256094;28;20041;-72
2022/10/21 09:49:57;;;;;;;4.03;2.50;;;;;;;13.79;100.00;100597.59;5256713;28;20021;-73
2022/10/21 09:52:31;;;;;;;;;;;;;;;13.97;100.00;100609.44;5257771;28;20127;-73
2022/10/21 09:55:03;;;;;;;11.17;3.20;;;;;;;14.04;100.00;100615.91;5256894;28;19917;-74
2022/10/21 09:57:50;;;;;;;6.37;3.50;;;;;;;14.02;100.00;100610.78;5256637;28;20472;-73
2022/10/21 10:00:38;;;;;;;7.87;4.77;;;;;;;14.03;100.00;100609.00;5257442;28;20040;-74
2022/10/21 10:03:09;;;;;;;9.20;5.43;;;;;;;14.20;100.00;100619.97;5256687;28;20068;-74
2022/10/21 10:05:46;;;;;;;9.43;5.00;;;;;;;14.22;100.00;100624.19;5257020;28;20061;-73
2022/10/21 10:08:20;;;;;;;12.57;5.43;;;;;;;14.31;100.00;100616.50;5256816;28;20052;-73
2022/10/21 10:11:00;;;;;;;11.80;7.03;;;;;;;14.36;100.00;100615.19;5255704;28;20035;-74
2022/10/21 10:13:32;;;;;;;12.73;7.43;;;;;;;14.45;100.00;100616.22;5255181;28;20321;-74
2022/10/21 10:16:31;;;;;;;13.13;5.27;;;;;;;14.43;100.00;100618.16;5256757;28;20110;-74
2022/10/21 10:19:18;;;;;;;10.83;5.83;;;;;;;14.56;100.00;100630.31;5254982;28;20029;-74
2022/10/21 10:22:08;;;;;;;6.87;5.00;;;;;;;14.55;100.00;100628.66;5255364;28;20021;-76
2022/10/21 10:24:41;;;;;;;10.43;5.20;;;;;;;14.75;100.00;100641.06;5256716;28;20080;-75
2022/10/21 10:27:18;;;;;;;12.50;5.87;;;;;;;14.73;100.00;100640.34;5255082;28;20129;-76
2022/10/21 10:29:53;;;;;;;15.10;5.77;;;;;;;14.92;100.00;100641.53;5256918;28;20128;-72
2022/10/21 10:32:30;;;;;;;11.80;5.77;;;;;;;15.03;100.00;100643.28;5257768;28;20025;-73
2022/10/21 10:35:07;;;;;;;24.60;11.77;;;;;;;15.10;100.00;100641.81;5257324;28;20379;-73
2022/10/21 10:37:38;;;;;;;15.17;8.63;;;;;;;15.28;100.00;100640.41;5255245;28;20031;-73
2022/10/21 10:40:22;;;;;;;19.70;7.77;;;;;;;15.34;100.00;100634.63;5256125;28;20025;-70
2022/10/21 10:43:04;;;;;;;10.03;5.87;;;;;;;15.35;100.00;100634.50;5253938;28;20025;-72
2022/10/21 10:45:36;;;;;;;9.37;5.73;;;;;;;15.39;100.00;100637.72;5239562;28;20315;-72
2022/10/21 10:48:21;;;;;;;9.93;4.83;;;;;;;15.53;100.00;100638.34;5254957;28;20101;-74
2022/10/21 10:50:52;;;;;;;10.70;4.97;;;;;;;15.56;100.00;100638.09;5254737;28;20048;-74
2022/10/21 10:53:36;;;;;;;9.87;4.23;;;;;;;15.70;100.00;100642.19;5255298;28;20025;-73
2022/10/21 10:56:39;;;;;;;10.80;4.47;;;;;;;15.80;100.00;100632.50;5254936;28;20079;-72
2022/10/21 10:59:20;;;;;;;10.43;5.40;;;;;;;16.01;100.00;100638.75;5232382;28;20072;-74
2022/10/21 11:02:06;;;;;;;10.37;6.00;;;;;;;16.18;100.00;100632.84;5254532;28;20031;-73
2022/10/21 11:05:05;;;;;;;13.27;6.70;;;;;;;16.20;100.00;100615.03;5256038;28;20067;-73
2022/10/21 11:07:43;;;;;;;10.93;5.37;;;;;;;16.28;100.00;100621.47;5255407;28;20403;-72
2022/10/21 11:10:40;;;;;;;9.23;5.20;;;;;;;16.43;100.00;100619.25;5255694;28;20029;-72
2022/10/21 11:13:18;;;;;;;13.90;4.70;;;;;;;16.53;100.00;100614.81;5254187;28;20090;-72
2022/10/21 11:16:18;;;;;;;10.63;4.90;;;;;;;16.65;100.00;100606.78;5255127;28;20143;-71
2022/10/21 11:18:57;;;;;;;9.13;5.37;;;;;;;16.61;100.00;100594.81;5255341;28;20029;-75
2022/10/21 11:21:43;;;;;;;11.33;5.43;;;;;;;16.69;100.00;100606.38;5255832;28;20025;-73
2022/10/21 11:24:49;;;;;;;9.13;4.73;;;;;;;16.83;100.00;100592.84;5254168;28;20036;-72
2022/10/21 11:27:32;;;;;;;8.10;4.13;;;;;;;16.96;100.00;100606.66;5254353;28;20033;-74
2022/10/21 11:30:33;;;;;;;4.87;2.80;;;;;;;17.20;100.00;100615.13;5255332;28;20112;-72
2022/10/21 11:33:27;;;;;;;6.57;2.50;;;;;;;17.25;100.00;100618.19;5255212;28;20025;-73
2022/10/21 11:36:24;;;;;;;5.03;2.55;;;;;;;17.32;100.00;100631.69;5254955;28;20052;-71
2022/10/21 11:39:18;;;;;;;7.00;2.77;;;;;;;17.42;100.00;100625.41;5255135;28;20064;-73
2022/10/21 11:42:05;;;;;;;7.17;2.27;;;;;;;17.53;100.00;100621.78;5254726;28;20502;-71
2022/10/21 11:45:05;;;;;;;3.93;2.03;;;;;;;17.61;100.00;100626.34;5255303;28;20027;-71
2022/10/21 11:47:51;;;;;;;3.60;2.67;;;;;;;17.56;100.00;100625.13;5254151;28;20033;-70